Time;durP1;ratioP1;P1;durP2;ratioP2;P2;SDS_P1;SDS_P2;PMS_P1;PMS_P2;Temp;Humidity;BMP_temperature;BMP_pressure;BME280_temperature;BME280_humidity;BME280_pressure;Samples;Min_cycle;Max_cycle;Signal;HPM_P1;HPM_P2
2021/09/25 00:00:34;;;;;;;18.73;10.02;;;11.90;99.90;;;;;;5091187;28;20030;-78
2021/09/25 00:03:02;;;;;;;16.85;9.93;;;11.90;99.90;;;;;;5092988;28;20069;-77
2021/09/25 00:05:35;;;;;;;25.90;11.02;;;11.90;99.90;;;;;;5092294;28;20039;-78
2021/09/25 00:08:00;;;;;;;16.73;10.73;;;11.90;99.90;;;;;;5090768;28;20039;-78
2021/09/25 00:10:27;;;;;;;20.08;10.43;;;11.90;99.90;;;;;;5092729;28;20473;-78
2021/09/25 00:12:53;;;;;;;23.05;13.68;;;12.00;99.90;;;;;;5091766;28;20046;-78
2021/09/25 00:15:20;;;;;;;29.80;14.00;;;12.00;99.90;;;;;;5096772;28;20470;-78
2021/09/25 00:17:46;;;;;;;31.27;14.73;;;12.00;99.90;;;;;;5095710;28;20027;-78
2021/09/25 00:20:13;;;;;;;29.35;16.70;;;12.00;99.90;;;;;;5094974;28;20023;-78
2021/09/25 00:22:39;;;;;;;36.22;16.75;;;12.00;99.90;;;;;;5096278;28;20370;-78
2021/09/25 00:25:05;;;;;;;31.45;15.48;;;12.00;99.90;;;;;;5094830;28;20039;-77
2021/09/25 00:27:30;;;;;;;29.30;14.27;;;12.00;99.90;;;;;;5096357;28;20069;-78
2021/09/25 00:29:57;;;;;;;27.05;12.63;;;12.00;99.90;;;;;;5094834;28;20022;-77
2021/09/25 00:32:22;;;;;;;21.80;11.50;;;12.00;99.90;;;;;;5095118;28;20030;-78
2021/09/25 00:34:48;;;;;;;21.50;11.55;;;12.00;99.90;;;;;;5095957;28;20103;-78
2021/09/25 00:37:14;;;;;;;17.67;10.18;;;12.00;99.90;;;;;;5096165;28;20095;-78
2021/09/25 00:39:40;;;;;;;17.77;10.73;;;12.00;99.90;;;;;;5096297;28;20063;-78
2021/09/25 00:42:06;;;;;;;16.92;10.05;;;12.00;99.90;;;;;;5094976;28;20386;-78
2021/09/25 00:44:31;;;;;;;15.75;9.85;;;12.00;99.90;;;;;;5094297;28;20127;-77
2021/09/25 00:46:58;;;;;;;17.23;10.68;;;12.00;99.90;;;;;;5094967;28;20532;-78
2021/09/25 00:49:24;;;;;;;19.15;10.77;;;12.00;99.90;;;;;;5095656;28;20047;-78
2021/09/25 00:51:50;;;;;;;19.70;11.00;;;12.00;99.90;;;;;;5094527;28;20052;-78
2021/09/25 00:54:17;;;;;;;16.90;10.23;;;12.00;99.90;;;;;;5095488;28;20027;-78
2021/09/25 00:56:44;;;;;;;22.65;12.35;;;12.00;99.90;;;;;;5096013;28;20389;-78
2021/09/25 00:59:11;;;;;;;22.20;11.60;;;11.90;99.90;;;;;;5095651;28;20028;-78
2021/09/25 01:01:38;;;;;;;25.85;15.60;;;12.00;99.90;;;;;;5095796;28;20021;-78
2021/09/25 01:04:04;;;;;;;17.98;11.30;;;12.00;99.90;;;;;;5095290;28;20072;-79
2021/09/25 01:06:29;;;;;;;17.75;11.15;;;11.90;99.90;;;;;;5094482;28;20027;-78
2021/09/25 01:08:55;;;;;;;21.40;11.23;;;11.90;99.90;;;;;;5093758;28;20032;-78
2021/09/25 01:11:22;;;;;;;20.23;11.27;;;11.90;99.90;;;;;;5094369;28;20493;-78
2021/09/25 01:13:48;;;;;;;20.42;11.57;;;11.90;99.90;;;;;;5093909;28;20032;-78
2021/09/25 01:16:14;;;;;;;23.25;12.40;;;11.90;99.90;;;;;;5095594;28;20050;-78
2021/09/25 01:18:40;;;;;;;22.77;11.55;;;11.90;99.90;;;;;;5095112;28;20474;-78
2021/09/25 01:21:07;;;;;;;23.70;11.75;;;11.90;99.90;;;;;;5094163;28;20033;-78
2021/09/25 01:23:34;;;;;;;21.45;11.02;;;11.90;99.90;;;;;;5094908;28;20031;-78
2021/09/25 01:26:00;;;;;;;22.27;11.98;;;11.90;99.90;;;;;;5094725;28;20115;-78
2021/09/25 01:28:27;;;;;;;18.20;10.27;;;11.90;99.90;;;;;;5094885;28;20073;-78
2021/09/25 01:30:53;;;;;;;18.30;10.93;;;11.90;99.90;;;;;;5094040;28;20028;-78
2021/09/25 01:33:27;;;;;;;18.70;10.00;;;11.80;99.90;;;;;;5094767;28;20016;-78
2021/09/25 01:35:52;;;;;;;25.92;10.80;;;11.90;99.90;;;;;;5094925;28;20028;-78
2021/09/25 01:38:18;;;;;;;17.00;10.55;;;11.80;99.90;;;;;;5093339;28;20038;-78
2021/09/25 01:40:44;;;;;;;16.55;10.60;;;11.90;99.90;;;;;;5093907;28;20119;-78
2021/09/25 01:43:10;;;;;;;19.67;11.18;;;11.80;99.90;;;;;;5093328;28;20020;-78
2021/09/25 01:45:35;;;;;;;19.70;11.65;;;11.80;99.90;;;;;;5094967;28;20027;-78
2021/09/25 01:48:01;;;;;;;16.33;9.95;;;11.80;99.90;;;;;;5093905;28;20028;-78
2021/09/25 01:50:27;;;;;;;13.25;9.32;;;11.80;99.90;;;;;;5094889;28;20031;-78
2021/09/25 01:52:52;;;;;;;27.42;11.48;;;11.80;99.90;;;;;;5094503;28;20071;-78
2021/09/25 01:55:18;;;;;;;17.58;11.68;;;11.90;99.90;;;;;;5093155;28;20020;-78
2021/09/25 01:57:44;;;;;;;21.17;11.73;;;11.90;99.90;;;;;;5094341;28;20110;-78
2021/09/25 02:00:10;;;;;;;24.80;12.90;;;11.90;99.90;;;;;;5094759;28;20031;-78
2021/09/25 02:02:37;;;;;;;17.38;10.63;;;11.80;99.90;;;;;;5093163;28;20024;-78
2021/09/25 02:05:04;;;;;;;22.17;11.88;;;11.80;99.90;;;;;;5094148;28;20486;-78
2021/09/25 02:07:29;;;;;;;19.60;12.25;;;11.90;99.90;;;;;;5093304;28;20104;-78
2021/09/25 02:09:55;;;;;;;13.57;9.95;;;11.90;99.90;;;;;;5093990;28;20059;-78
2021/09/25 02:12:20;;;;;;;20.13;10.50;;;11.90;99.90;;;;;;5094338;28;20020;-78
2021/09/25 02:14:46;;;;;;;19.15;10.38;;;11.80;99.90;;;;;;5092640;28;20032;-78
2021/09/25 02:17:12;;;;;;;14.02;9.55;;;11.80;99.90;;;;;;5094035;28;20093;-78
2021/09/25 02:19:38;;;;;;;11.55;8.13;;;11.80;99.90;;;;;;5093011;28;20435;-78
2021/09/25 02:22:03;;;;;;;15.52;9.40;;;11.80;99.90;;;;;;5092867;28;20111;-78
2021/09/25 02:24:29;;;;;;;16.88;9.98;;;11.80;99.90;;;;;;5092444;28;20119;-78
2021/09/25 02:26:56;;;;;;;12.80;9.23;;;11.80;99.90;;;;;;5093869;28;20023;-78
2021/09/25 02:29:22;;;;;;;14.55;8.95;;;11.80;99.90;;;;;;5093684;28;20069;-78
2021/09/25 02:31:48;;;;;;;15.35;9.73;;;11.80;99.90;;;;;;5094133;28;20423;-78
2021/09/25 02:34:13;;;;;;;17.35;10.52;;;11.80;99.90;;;;;;5093572;28;20062;-78
2021/09/25 02:36:39;;;;;;;15.60;9.85;;;11.80;99.90;;;;;;5092876;28;20027;-78
2021/09/25 02:39:05;;;;;;;15.23;9.60;;;11.80;99.90;;;;;;5093874;28;20097;-78
2021/09/25 02:41:30;;;;;;;13.38;9.88;;;11.80;99.90;;;;;;5093933;28;20020;-78
2021/09/25 02:43:56;;;;;;;18.45;9.63;;;11.80;99.90;;;;;;5093387;28;20032;-78
2021/09/25 02:46:22;;;;;;;17.65;9.65;;;11.80;99.90;;;;;;5093868;28;20527;-78
2021/09/25 02:48:47;;;;;;;18.02;10.65;;;11.80;99.90;;;;;;5092148;28;20438;-77
2021/09/25 02:51:14;;;;;;;13.02;9.40;;;11.80;99.90;;;;;;5091302;28;20057;-78
2021/09/25 02:53:40;;;;;;;16.70;10.10;;;11.80;99.90;;;;;;5092033;28;20549;-78
2021/09/25 02:56:06;;;;;;;17.27;10.20;;;11.80;99.90;;;;;;5093711;28;20017;-78
2021/09/25 02:58:32;;;;;;;17.02;10.45;;;11.80;99.90;;;;;;5091646;28;20046;-78
2021/09/25 03:00:57;;;;;;;16.15;9.85;;;11.80;99.90;;;;;;5093666;28;20466;-77
2021/09/25 03:03:23;;;;;;;12.93;9.52;;;11.80;99.90;;;;;;5091793;28;20031;-77
2021/09/25 03:05:49;;;;;;;13.25;10.02;;;11.90;99.90;;;;;;5093526;28;20039;-78
2021/09/25 03:08:14;;;;;;;16.80;10.02;;;11.80;99.90;;;;;;5093358;28;20470;-78
2021/09/25 03:10:40;;;;;;;15.38;10.52;;;11.90;99.90;;;;;;5091515;28;20020;-77
2021/09/25 03:13:06;;;;;;;17.52;10.52;;;11.80;99.90;;;;;;5091717;28;20027;-78
2021/09/25 03:15:32;;;;;;;16.55;10.45;;;11.80;99.90;;;;;;5092043;28;20024;-78
2021/09/25 03:17:58;;;;;;;20.02;11.65;;;11.80;99.90;;;;;;5092905;28;20492;-77
2021/09/25 03:20:23;;;;;;;14.70;10.48;;;11.80;99.90;;;;;;5093294;28;20024;-77
2021/09/25 03:22:49;;;;;;;16.50;11.05;;;11.70;99.90;;;;;;5092854;28;20538;-77
2021/09/25 03:25:15;;;;;;;15.10;10.32;;;11.70;99.90;;;;;;5092806;28;20447;-77
2021/09/25 03:27:41;;;;;;;16.02;10.00;;;11.70;99.90;;;;;;5092922;28;20518;-77
2021/09/25 03:30:08;;;;;;;17.38;10.75;;;11.80;99.90;;;;;;5094009;28;20462;-77
2021/09/25 03:32:34;;;;;;;18.60;10.73;;;11.80;99.90;;;;;;5091813;28;20025;-77
2021/09/25 03:35:00;;;;;;;23.98;11.93;;;11.80;99.90;;;;;;5091067;28;20020;-77
2021/09/25 03:37:25;;;;;;;17.40;9.98;;;11.80;99.90;;;;;;5091496;28;20085;-78
2021/09/25 03:39:51;;;;;;;15.93;10.38;;;11.80;99.90;;;;;;5091027;28;20450;-78
2021/09/25 03:42:17;;;;;;;19.48;10.63;;;11.80;99.90;;;;;;5091281;28;20377;-78
2021/09/25 03:44:43;;;;;;;18.40;10.27;;;11.80;99.90;;;;;;5091270;28;20039;-77
2021/09/25 03:47:09;;;;;;;15.15;9.82;;;11.80;99.90;;;;;;5092386;28;20078;-78
2021/09/25 03:49:35;;;;;;;13.57;10.20;;;11.80;99.90;;;;;;5092154;28;20385;-78
2021/09/25 03:52:00;;;;;;;14.95;9.48;;;11.80;99.90;;;;;;5093034;28;20022;-78
2021/09/25 03:54:26;;;;;;;18.27;10.35;;;11.80;99.90;;;;;;5090536;28;20028;-78
2021/09/25 03:56:52;;;;;;;18.00;10.13;;;11.80;99.90;;;;;;5092960;28;20021;-78
2021/09/25 03:59:18;;;;;;;13.05;9.77;;;11.80;99.90;;;;;;5091048;28;20530;-77
2021/09/25 04:01:43;;;;;;;16.17;9.57;;;11.80;99.90;;;;;;5092483;28;20119;-78
2021/09/25 04:04:09;;;;;;;17.27;8.90;;;11.80;99.90;;;;;;5091699;28;20836;-78
2021/09/25 04:06:35;;;;;;;14.02;8.93;;;11.80;99.90;;;;;;5092791;28;20467;-78
2021/09/25 04:09:01;;;;;;;15.25;9.13;;;11.80;99.90;;;;;;5089857;28;20024;-78
2021/09/25 04:11:26;;;;;;;11.60;8.18;;;11.80;99.90;;;;;;5091074;28;20032;-78
2021/09/25 04:13:52;;;;;;;15.38;9.27;;;11.90;99.90;;;;;;5090824;28;20024;-78
2021/09/25 04:16:17;;;;;;;15.63;10.27;;;11.90;99.90;;;;;;5092616;28;20096;-78
2021/09/25 04:18:43;;;;;;;13.40;9.27;;;11.90;99.90;;;;;;5092177;28;20081;-78
2021/09/25 04:21:09;;;;;;;13.73;9.10;;;11.90;99.90;;;;;;5091407;28;20028;-78
2021/09/25 04:23:35;;;;;;;13.30;9.32;;;11.90;99.90;;;;;;5090558;28;20022;-78
2021/09/25 04:26:01;;;;;;;13.13;8.82;;;12.00;99.90;;;;;;5089357;28;20346;-78
2021/09/25 04:28:27;;;;;;;14.23;9.07;;;12.00;99.90;;;;;;5088683;28;20012;-78
2021/09/25 04:30:52;;;;;;;14.50;8.90;;;12.00;99.90;;;;;;5089130;28;20023;-78
2021/09/25 04:33:18;;;;;;;12.80;9.32;;;12.00;99.90;;;;;;5091713;28;20089;-77
2021/09/25 04:35:44;;;;;;;17.23;8.73;;;12.00;99.90;;;;;;5092148;28;20020;-77
2021/09/25 04:38:09;;;;;;;17.92;10.32;;;12.00;99.90;;;;;;5090253;28;20478;-77
2021/09/25 04:40:35;;;;;;;12.68;8.38;;;12.00;99.90;;;;;;5090657;28;20020;-78
2021/09/25 04:43:02;;;;;;;13.93;8.57;;;12.00;99.90;;;;;;5091749;28;20134;-77
2021/09/25 04:45:28;;;;;;;13.00;9.27;;;12.00;99.90;;;;;;5089890;28;20080;-78
2021/09/25 04:47:54;;;;;;;16.08;8.80;;;12.00;99.90;;;;;;5088924;28;20385;-78
2021/09/25 04:50:20;;;;;;;13.80;8.50;;;12.00;99.90;;;;;;5089077;28;20028;-78
2021/09/25 04:52:45;;;;;;;20.23;10.07;;;12.00;99.90;;;;;;5090530;28;20028;-78
2021/09/25 04:55:12;;;;;;;15.45;9.10;;;12.00;99.90;;;;;;5088480;28;20044;-78
2021/09/25 04:57:37;;;;;;;13.50;8.57;;;12.00;99.90;;;;;;5088992;28;20382;-78
2021/09/25 05:00:07;;;;;;;14.82;8.65;;;12.00;99.90;;;;;;5090090;28;20028;-77
2021/09/25 05:02:33;;;;;;;14.43;8.80;;;12.10;99.90;;;;;;5092412;28;20024;-77
2021/09/25 05:04:59;;;;;;;19.27;10.02;;;12.10;99.90;;;;;;5091746;28;20064;-77
2021/09/25 05:07:25;;;;;;;12.50;8.68;;;12.10;99.90;;;;;;5092007;28;20063;-77
2021/09/25 05:09:50;;;;;;;11.63;8.52;;;12.10;99.90;;;;;;5090077;28;20020;-78
2021/09/25 05:12:16;;;;;;;13.25;8.52;;;12.10;99.90;;;;;;5091684;28;20066;-77
2021/09/25 05:14:42;;;;;;;12.45;8.90;;;12.10;99.90;;;;;;5089920;28;20069;-77
2021/09/25 05:17:08;;;;;;;13.55;8.80;;;12.10;99.90;;;;;;5091613;28;20024;-77
2021/09/25 05:19:34;;;;;;;13.65;8.77;;;12.10;99.90;;;;;;5091914;28;20024;-78
2021/09/25 05:22:01;;;;;;;11.80;8.57;;;12.10;99.90;;;;;;5094370;28;20103;-78
2021/09/25 05:24:26;;;;;;;13.02;8.40;;;12.20;99.90;;;;;;5093636;28;20040;-78
2021/09/25 05:26:52;;;;;;;12.70;9.75;;;12.20;99.90;;;;;;5094443;28;20473;-78
2021/09/25 05:29:18;;;;;;;14.02;8.35;;;12.20;99.90;;;;;;5095122;28;20028;-78
2021/09/25 05:31:44;;;;;;;11.05;8.40;;;12.20;99.90;;;;;;5094821;28;20020;-78
2021/09/25 05:34:10;;;;;;;12.75;9.18;;;12.20;99.90;;;;;;5093619;28;20374;-78
2021/09/25 05:36:35;;;;;;;14.48;9.30;;;12.30;99.90;;;;;;5093948;28;20020;-77
2021/09/25 05:39:03;;;;;;;14.52;9.00;;;12.30;99.90;;;;;;5095049;28;20036;-77
2021/09/25 05:41:28;;;;;;;14.05;8.70;;;12.30;99.90;;;;;;5095179;28;20397;-77
2021/09/25 05:43:55;;;;;;;12.93;8.23;;;12.40;99.90;;;;;;5094585;28;20028;-77
2021/09/25 05:46:21;;;;;;;14.10;8.65;;;12.40;99.90;;;;;;5093449;28;20119;-78
2021/09/25 05:48:48;;;;;;;11.25;7.95;;;12.40;99.90;;;;;;5093212;28;20016;-77
2021/09/25 05:51:14;;;;;;;10.95;8.48;;;12.50;99.90;;;;;;5094953;28;20024;-77
2021/09/25 05:53:40;;;;;;;11.25;8.35;;;12.50;99.90;;;;;;5094486;28;20035;-77
2021/09/25 05:56:05;;;;;;;14.43;7.90;;;12.50;99.90;;;;;;5093557;28;20024;-78
2021/09/25 05:58:31;;;;;;;12.10;7.88;;;12.50;99.90;;;;;;5094005;28;20073;-77
2021/09/25 06:00:57;;;;;;;12.80;8.23;;;12.60;99.90;;;;;;5093691;28;20107;-77
2021/09/25 06:03:22;;;;;;;10.88;8.35;;;12.60;99.90;;;;;;5092499;28;20036;-77
2021/09/25 06:05:48;;;;;;;12.20;8.60;;;12.70;99.90;;;;;;5093351;28;20032;-78
2021/09/25 06:08:14;;;;;;;11.18;8.55;;;12.70;99.90;;;;;;5092570;28;20016;-78
2021/09/25 06:10:41;;;;;;;10.15;8.10;;;12.80;99.90;;;;;;5092892;28;20032;-78
2021/09/25 06:13:10;;;;;;;10.40;7.45;;;12.80;99.90;;;;;;5094010;28;20024;-78
2021/09/25 06:15:38;;;;;;;12.63;8.55;;;12.80;99.90;;;;;;5092959;28;20433;-78
2021/09/25 06:18:05;;;;;;;10.30;8.20;;;12.90;99.90;;;;;;5093476;28;20023;-78
2021/09/25 06:20:31;;;;;;;10.52;8.02;;;12.90;99.90;;;;;;5092719;28;20042;-77
2021/09/25 06:22:57;;;;;;;10.25;8.10;;;12.90;99.90;;;;;;5094438;28;20535;-78
2021/09/25 06:25:24;;;;;;;12.45;7.90;;;13.00;99.90;;;;;;5093534;28;20077;-77
2021/09/25 06:27:50;;;;;;;9.57;7.65;;;13.00;99.90;;;;;;5094514;28;20023;-78
2021/09/25 06:30:16;;;;;;;12.90;8.00;;;13.10;99.90;;;;;;5093785;28;20024;-78
2021/09/25 06:32:41;;;;;;;11.50;8.73;;;13.10;99.90;;;;;;5092860;28;20028;-78
2021/09/25 06:35:09;;;;;;;10.45;7.70;;;13.10;99.90;;;;;;5092274;28;20027;-77
2021/09/25 06:37:34;;;;;;;12.18;8.02;;;13.20;99.90;;;;;;5075704;28;20102;-78
2021/09/25 06:40:00;;;;;;;13.43;8.85;;;13.20;99.90;;;;;;5092603;28;20121;-78
2021/09/25 06:42:26;;;;;;;10.55;8.30;;;13.30;99.90;;;;;;5093627;28;20024;-77
2021/09/25 06:44:52;;;;;;;12.15;7.72;;;13.30;99.90;;;;;;5093014;28;20039;-77
2021/09/25 06:47:17;;;;;;;10.43;8.02;;;13.30;99.90;;;;;;5091939;28;20454;-77
2021/09/25 06:49:43;;;;;;;12.32;7.90;;;13.40;99.90;;;;;;5092231;28;20103;-77
2021/09/25 06:52:10;;;;;;;10.93;8.57;;;13.40;99.90;;;;;;5091378;28;20016;-78
2021/09/25 06:54:37;;;;;;;10.80;7.53;;;13.40;99.90;;;;;;5092833;28;20027;-78
2021/09/25 06:57:04;;;;;;;10.30;7.88;;;13.40;99.90;;;;;;5090095;28;20016;-78
2021/09/25 06:59:30;;;;;;;10.63;7.85;;;13.50;99.90;;;;;;5091470;28;20028;-78
2021/09/25 07:01:56;;;;;;;11.48;7.32;;;13.50;99.90;;;;;;5091806;28;20464;-78
2021/09/25 07:04:22;;;;;;;10.48;8.07;;;13.60;99.90;;;;;;5090333;28;20028;-78
2021/09/25 07:06:48;;;;;;;10.40;7.93;;;13.60;99.90;;;;;;5092360;28;20032;-78
2021/09/25 07:09:13;;;;;;;9.88;7.38;;;13.60;99.90;;;;;;5092728;28;20111;-78
2021/09/25 07:11:39;;;;;;;11.77;8.05;;;13.60;99.90;;;;;;5091984;28;20019;-78
2021/09/25 07:14:05;;;;;;;11.90;8.13;;;13.60;99.90;;;;;;5091402;28;20065;-78
2021/09/25 07:16:31;;;;;;;13.30;7.80;;;13.70;99.90;;;;;;5091842;28;20012;-78
2021/09/25 07:18:56;;;;;;;12.48;8.07;;;13.80;99.90;;;;;;5091068;28;20389;-78
2021/09/25 07:21:22;;;;;;;11.77;8.57;;;13.80;99.90;;;;;;5091501;28;20055;-78
2021/09/25 07:23:48;;;;;;;11.82;8.45;;;13.90;99.90;;;;;;5090556;28;20031;-78
2021/09/25 07:26:14;;;;;;;10.75;7.50;;;14.00;99.90;;;;;;5093044;28;20021;-78
2021/09/25 07:28:40;;;;;;;11.20;8.73;;;14.00;99.90;;;;;;5092631;28;20092;-77
2021/09/25 07:31:07;;;;;;;10.00;8.52;;;14.10;99.90;;;;;;5091792;28;20027;-78
2021/09/25 07:33:33;;;;;;;12.00;9.30;;;14.10;99.90;;;;;;5090993;28;20046;-78
2021/09/25 07:36:00;;;;;;;13.18;8.48;;;14.10;99.90;;;;;;5090820;28;20465;-78
2021/09/25 07:38:26;;;;;;;12.45;9.38;;;14.20;99.90;;;;;;5089799;28;20096;-79
2021/09/25 07:40:54;;;;;;;14.18;9.43;;;14.20;99.90;;;;;;5091148;28;20470;-79
2021/09/25 07:43:20;;;;;;;9.73;7.63;;;14.30;99.90;;;;;;5090573;28;20016;-78
2021/09/25 07:45:46;;;;;;;15.52;9.88;;;14.40;99.90;;;;;;5092222;28;20115;-78
2021/09/25 07:48:12;;;;;;;11.77;9.00;;;14.40;99.90;;;;;;5090248;28;20028;-78
2021/09/25 07:50:38;;;;;;;14.57;9.25;;;14.50;99.90;;;;;;5090651;28;20103;-78
2021/09/25 07:53:03;;;;;;;10.38;8.95;;;14.50;99.90;;;;;;5092214;28;20024;-77
2021/09/25 07:55:29;;;;;;;14.10;9.90;;;14.50;99.90;;;;;;5090572;28;20069;-79
2021/09/25 07:57:55;;;;;;;12.15;9.13;;;14.50;99.90;;;;;;5090861;28;20031;-77
2021/09/25 08:00:21;;;;;;;10.35;8.25;;;14.60;99.90;;;;;;5092218;28;20035;-77
2021/09/25 08:02:46;;;;;;;12.23;9.18;;;14.70;99.90;;;;;;5090598;28;20020;-76
2021/09/25 08:05:12;;;;;;;13.25;9.25;;;14.70;99.90;;;;;;5081868;28;20028;-77
2021/09/25 08:07:39;;;;;;;13.43;9.88;;;14.80;99.90;;;;;;5089752;28;20093;-77
2021/09/25 08:10:07;;;;;;;15.65;10.23;;;14.90;99.90;;;;;;5088990;28;20030;-77
2021/09/25 08:12:32;;;;;;;16.17;9.77;;;15.00;99.90;;;;;;5088743;28;20016;-77
2021/09/25 08:14:58;;;;;;;17.35;10.05;;;15.10;99.90;;;;;;5090571;28;20587;-77
2021/09/25 08:17:25;;;;;;;13.77;10.20;;;15.20;99.90;;;;;;5089830;28;20107;-78
2021/09/25 08:19:51;;;;;;;14.80;10.52;;;15.30;99.90;;;;;;5089360;28;20032;-77
2021/09/25 08:22:17;;;;;;;16.70;10.85;;;15.40;99.90;;;;;;5088843;28;20031;-77
2021/09/25 08:24:43;;;;;;;13.75;10.63;;;15.50;99.90;;;;;;5089898;28;20339;-77
2021/09/25 08:27:10;;;;;;;17.92;11.50;;;15.60;99.90;;;;;;5086161;28;20040;-77
2021/09/25 08:29:36;;;;;;;17.17;10.48;;;15.70;99.90;;;;;;5088151;28;20029;-77
2021/09/25 08:32:02;;;;;;;20.52;11.85;;;15.80;99.90;;;;;;5090410;28;20028;-78
2021/09/25 08:34:28;;;;;;;15.60;11.68;;;15.80;99.90;;;;;;5090077;28;20210;-77
2021/09/25 08:36:54;;;;;;;14.50;10.27;;;15.80;99.90;;;;;;5093241;28;20493;-77
2021/09/25 08:39:20;;;;;;;16.55;10.70;;;15.90;99.90;;;;;;5092732;28;20131;-77
2021/09/25 08:41:46;;;;;;;13.95;10.57;;;16.00;99.90;;;;;;5091424;28;20012;-77
2021/09/25 08:44:12;;;;;;;16.42;10.55;;;16.00;99.90;;;;;;5093747;28;20024;-77
2021/09/25 08:46:38;;;;;;;15.90;10.57;;;16.00;99.90;;;;;;5091305;28;20023;-77
2021/09/25 08:49:05;;;;;;;16.38;10.55;;;16.00;99.90;;;;;;5092412;28;20016;-77
2021/09/25 08:51:31;;;;;;;14.38;11.23;;;16.00;99.90;;;;;;5091915;28;20012;-77
2021/09/25 08:53:57;;;;;;;17.90;10.40;;;16.00;99.90;;;;;;5093297;28;20473;-77
2021/09/25 08:56:23;;;;;;;12.30;9.93;;;16.00;99.90;;;;;;5093771;28;20059;-77
2021/09/25 08:58:49;;;;;;;13.60;9.95;;;16.00;99.90;;;;;;5093957;28;20028;-77
2021/09/25 09:01:19;;;;;;;11.43;9.88;;;16.00;99.90;;;;;;5091656;28;20036;-77
2021/09/25 09:03:47;;;;;;;12.77;9.43;;;16.10;99.90;;;;;;5091856;28;20104;-78
2021/09/25 09:06:19;;;;;;;13.02;9.63;;;16.10;99.90;;;;;;5093421;28;20127;-78
2021/09/25 09:08:48;;;;;;;14.20;10.15;;;16.20;99.90;;;;;;5092125;28;20036;-78
2021/09/25 09:11:16;;;;;;;11.70;8.68;;;16.30;99.90;;;;;;5089946;28;20177;-78
2021/09/25 09:13:44;;;;;;;14.90;10.18;;;16.30;99.90;;;;;;5088382;28;20587;-78
2021/09/25 09:16:11;;;;;;;13.75;9.45;;;16.40;99.90;;;;;;5090820;28;20162;-78
2021/09/25 09:18:40;;;;;;;11.60;9.20;;;16.40;99.90;;;;;;5090368;28;20381;-78
2021/09/25 09:21:15;;;;;;;12.77;9.48;;;16.40;99.90;;;;;;5092617;28;20118;-78
2021/09/25 09:23:56;;;;;;;13.48;9.82;;;16.50;99.90;;;;;;5092129;28;20158;-78
2021/09/25 09:26:27;;;;;;;16.50;10.07;;;16.60;99.90;;;;;;5086761;28;20133;-78
2021/09/25 09:28:55;;;;;;;11.63;9.35;;;16.70;99.90;;;;;;5091857;28;20024;-77
2021/09/25 09:31:21;;;;;;;11.88;9.25;;;16.70;99.90;;;;;;5089842;28;20122;-77
2021/09/25 09:33:52;;;;;;;13.52;10.10;;;16.70;99.90;;;;;;5089189;28;20358;-78
2021/09/25 09:36:25;;;;;;;13.35;10.45;;;16.80;99.90;;;;;;5091004;27;20576;-78
2021/09/25 09:38:55;;;;;;;16.50;10.88;;;16.80;99.90;;;;;;5089525;28;20032;-78
2021/09/25 09:41:27;;;;;;;12.80;9.60;;;16.80;99.90;;;;;;5088788;28;20032;-79
2021/09/25 09:43:55;;;;;;;12.95;9.38;;;16.90;99.90;;;;;;5090191;28;20020;-78
2021/09/25 09:46:27;;;;;;;15.30;11.18;;;17.00;99.90;;;;;;5088477;28;20040;-78
2021/09/25 09:48:55;;;;;;;17.23;10.35;;;17.10;99.90;;;;;;5091755;28;20023;-79
2021/09/25 09:51:42;;;;;;;13.93;10.30;;;17.10;99.90;;;;;;5092556;28;20550;-78
2021/09/25 09:54:14;;;;;;;11.85;9.95;;;17.20;99.90;;;;;;5091758;28;20020;-79
2021/09/25 09:56:42;;;;;;;15.55;10.02;;;17.30;99.90;;;;;;5090924;28;20028;-79
2021/09/25 09:59:08;;;;;;;12.55;10.27;;;17.30;99.90;;;;;;5091646;28;20020;-79
2021/09/25 10:01:35;;;;;;;12.68;10.02;;;17.30;99.90;;;;;;5092327;28;20050;-79
2021/09/25 10:04:02;;;;;;;11.68;9.88;;;17.40;99.90;;;;;;5092128;28;20020;-79
2021/09/25 10:06:28;;;;;;;14.57;10.18;;;17.40;99.90;;;;;;5092296;28;20093;-79
2021/09/25 10:08:54;;;;;;;16.52;10.48;;;17.50;99.90;;;;;;5090658;28;20024;-79
2021/09/25 10:11:22;;;;;;;13.75;10.38;;;17.60;99.90;;;;;;5090840;28;20440;-78
2021/09/25 10:13:48;;;;;;;16.02;9.95;;;17.70;99.90;;;;;;5092265;28;20028;-79
2021/09/25 10:16:15;;;;;;;11.90;9.77;;;17.70;99.90;;;;;;5091763;28;20039;-79
2021/09/25 10:18:42;;;;;;;16.10;11.55;;;17.90;99.90;;;;;;5089933;28;20050;-78
2021/09/25 10:21:13;;;;;;;17.17;11.77;;;18.00;99.90;;;;;;5093014;28;20040;-79
2021/09/25 10:23:48;;;;;;;14.48;9.73;;;18.10;99.90;;;;;;5091650;28;20408;-79
2021/09/25 10:26:17;;;;;;;18.52;12.13;;;18.10;99.90;;;;;;5092307;28;20048;-79
2021/09/25 10:28:56;;;;;;;14.95;10.60;;;18.10;99.90;;;;;;5089155;28;20376;-79
2021/09/25 10:31:22;;;;;;;17.98;12.05;;;18.10;99.90;;;;;;5090651;28;20028;-79
2021/09/25 10:34:08;;;;;;;17.63;10.73;;;18.30;99.90;;;;;;5090067;28;20032;-79
2021/09/25 10:36:42;;;;;;;13.18;9.75;;;18.40;99.90;;;;;;5091671;28;20463;-78
2021/09/25 10:39:26;;;;;;;16.35;10.77;;;18.50;99.90;;;;;;5091063;28;20343;-78
2021/09/25 10:42:01;;;;;;;16.65;12.43;;;18.50;99.90;;;;;;5074766;28;20040;-79
2021/09/25 10:44:28;;;;;;;25.58;13.40;;;18.50;99.90;;;;;;5084426;28;20039;-79
2021/09/25 10:47:09;;;;;;;19.10;12.07;;;18.60;99.90;;;;;;5091245;28;20059;-79
2021/09/25 10:50:10;;;;;;;19.75;12.68;;;18.70;99.90;;;;;;5089672;28;20017;-78
2021/09/25 10:53:28;;;;;;;19.42;11.88;;;18.60;99.90;;;;;;5085636;28;20024;-78
2021/09/25 10:55:58;;;;;;;20.75;12.02;;;18.50;99.90;;;;;;5085280;28;20036;-78
2021/09/25 10:58:24;;;;;;;17.67;11.68;;;18.50;99.90;;;;;;5088668;28;20023;-79
2021/09/25 11:00:49;;;;;;;20.02;11.25;;;18.40;99.90;;;;;;5090519;28;20036;-79
2021/09/25 11:03:40;;;;;;;15.25;12.00;;;18.40;99.90;;;;;;5090158;28;20027;-78
2021/09/25 11:06:39;;;;;;;15.02;10.63;;;18.20;99.90;;;;;;5089927;28;20044;-78
2021/09/25 11:09:07;;;;;;;13.10;10.30;;;18.20;99.90;;;;;;5059350;28;20489;-79
2021/09/25 11:11:57;;;;;;;19.25;11.65;;;18.30;99.90;;;;;;5083970;28;20043;-78
2021/09/25 11:14:31;;;;;;;24.27;14.70;;;18.60;99.90;;;;;;5083632;28;20059;-79
2021/09/25 11:16:56;;;;;;;19.10;12.90;;;18.70;99.90;;;;;;5091345;28;20070;-79
2021/09/25 11:19:22;;;;;;;14.15;10.18;;;18.80;99.90;;;;;;5089672;28;20063;-79
2021/09/25 11:21:49;;;;;;;13.93;9.85;;;18.70;99.90;;;;;;5090937;28;20500;-79
2021/09/25 11:24:16;;;;;;;15.70;11.10;;;18.80;99.90;;;;;;5089800;28;20028;-79
2021/09/25 11:26:42;;;;;;;14.10;10.27;;;18.80;99.90;;;;;;5080237;28;20408;-79
2021/09/25 11:29:09;;;;;;;15.73;11.43;;;18.90;99.90;;;;;;5081687;28;20112;-79
2021/09/25 11:31:35;;;;;;;12.35;9.68;;;18.90;99.90;;;;;;5090817;28;20103;-79
2021/09/25 11:34:03;;;;;;;18.00;12.27;;;18.90;99.90;;;;;;5089475;28;20024;-79
2021/09/25 11:36:29;;;;;;;17.67;12.02;;;19.00;99.90;;;;;;5088399;28;20040;-79
2021/09/25 11:38:55;;;;;;;13.25;8.93;;;19.00;99.90;;;;;;5088961;28;20429;-78
2021/09/25 11:41:21;;;;;;;12.32;8.82;;;19.00;99.90;;;;;;5089418;28;20036;-79
2021/09/25 11:43:56;;;;;;;14.63;9.25;;;19.10;99.90;;;;;;5089522;28;20107;-78
2021/09/25 11:46:26;;;;;;;14.88;10.65;;;19.10;99.90;;;;;;5090385;28;20144;-78
2021/09/25 11:48:58;;;;;;;11.70;8.93;;;19.20;99.90;;;;;;5087318;28;20020;-79
2021/09/25 11:51:24;;;;;;;17.05;11.10;;;19.20;99.90;;;;;;5087319;28;20165;-79
2021/09/25 11:53:59;;;;;;;17.65;11.85;;;19.20;99.90;;;;;;5089923;28;20099;-81
2021/09/25 11:56:28;;;;;;;12.75;9.02;;;19.20;99.90;;;;;;5089026;28;20074;-79
2021/09/25 11:58:58;;;;;;;14.40;10.55;;;19.20;99.90;;;;;;5090845;28;20031;-79
2021/09/25 12:01:24;;;;;;;12.85;9.38;;;19.30;99.90;;;;;;5088678;28;20040;-78
2021/09/25 12:03:50;;;;;;;11.02;8.20;;;19.40;99.90;;;;;;5089417;28;20024;-79
2021/09/25 12:06:15;;;;;;;9.50;8.50;;;19.50;99.90;;;;;;5086655;28;20044;-79
2021/09/25 12:08:41;;;;;;;10.43;7.43;;;19.40;99.90;;;;;;5086963;28;20016;-79
2021/09/25 12:11:09;;;;;;;15.02;10.43;;;19.30;97.60;;;;;;5091107;28;20020;-79
2021/09/25 12:13:44;;;;;;;10.70;7.57;;;19.30;97.90;;;;;;5085999;28;20158;-79
2021/09/25 12:16:15;;;;;;;8.93;7.78;;;19.20;96.00;;;;;;5091626;28;20046;-79
2021/09/25 12:18:43;;;;;;;9.75;7.55;;;19.30;97.90;;;;;;5092910;28;20104;-79
2021/09/25 12:21:15;;;;;;;8.80;7.35;;;19.40;98.70;;;;;;5093515;28;20036;-78
2021/09/25 12:23:40;;;;;;;8.70;7.55;;;19.40;99.90;;;;;;5089769;28;20123;-78
2021/09/25 12:26:07;;;;;;;9.52;6.85;;;19.30;99.60;;;;;;5092192;28;20083;-79
2021/09/25 12:28:53;;;;;;;9.32;6.63;;;19.40;99.90;;;;;;5093614;28;20113;-79
2021/09/25 12:31:25;;;;;;;11.77;7.40;;;19.40;98.00;;;;;;5091430;28;20067;-79
2021/09/25 12:33:58;;;;;;;8.40;7.00;;;19.30;95.00;;;;;;5092523;28;20073;-79